Coral Leaf — PHNI — position and weather

sailwx.info

Track history (hours):
 
Tides and Currents Weather Stations Pressure Air Temp Water Temp Dewpoint Dewpoint Depression Visibility Wind Speed Wind Dir Waves Ship Positions

Coral Leaf

Last reported at 2016-Aug-26 02:34 UTC. Time now 2016-Aug-26 03:16 UTC.
Position N 49°52' W 003°11'.

Length 108 m; draft 5 m.

MMSI: 244036000.

Date/timePositionNaut miles runAvg speedWind from/ knotsBaromVisibWave heightAir tempDewpointWater temp
2016-Aug-26 02:34N 49°52' W 003°11'1414.4
2016-Aug-26 01:34N 49°58' W 002°51'1914.0
2016-Aug-26 00:13N 50°04' W 002°23'914.1
2016-Aug-25 23:34N 50°06' W 002°09'1514.6
2016-Aug-25 22:34N 50°11' W 001°47'2016.0
2016-Aug-25 21:20N 50°17' W 001°18'1517.9
2016-Aug-25 20:30N 50°21' W 000°55'1718.0
2016-Aug-25 19:32N 50°26' W 000°30'1717.2
2016-Aug-25 18:33N 50°31' W 000°04'1616.4
2016-Aug-25 17:33N 50°36' E 000°21'1615.5
2016-Aug-25 16:33N 50°42' E 000°43'1514.8
2016-Aug-25 15:33N 50°51' E 001°02'1515.0
2016-Aug-25 14:34N 51°01' E 001°19'1717.2
2016-Aug-25 13:33N 51°11' E 001°41'1717.3
2016-Aug-25 12:34N 51°26' E 001°56'1616.2
2016-Aug-25 11:34N 51°38' E 002°13'1515.3
2016-Aug-25 10:33N 51°49' E 002°30'1515.2
2016-Aug-25 09:34N 52°01' E 002°45'1514.9
2016-Aug-25 08:33N 52°13' E 003°00'1010.5
2016-Aug-25 07:33N 52°23' E 003°05'2 1.5
2016-Aug-25 06:33N 52°21' E 003°05'2210.8
2016-Aug-25 04:33N 52°37' E 003°30'1514.7
2016-Aug-25 03:32N 52°48' E 003°46'1414.7
2016-Aug-25 02:33N 52°59' E 004°02'1514.9
2016-Aug-25 01:33N 53°09' E 004°20'1514.8
2016-Aug-25 00:33N 53°22' E 004°31'1515.0
2016-Aug-24 23:33N 53°36' E 004°40'1514.6
2016-Aug-24 22:33N 53°50' E 004°49'1414.3
2016-Aug-24 21:33N 54°03' E 004°58'1414.6
2016-Aug-24 20:33N 54°17' E 005°07'2215.0
2016-Aug-24 19:04N 54°37' E 005°21'3814.9
2016-Aug-24 16:31N 55°09' E 005°58'1914.7
2016-Aug-24 15:16N 55°24' E 006°16'1614.7
2016-Aug-24 14:10N 55°38' E 006°31'914.8
2016-Aug-24 13:34N 55°45' E 006°41'1714.7
2016-Aug-24 12:26N 55°59' E 006°57'1314.6
2016-Aug-24 11:31N 56°10' E 007°10'2813.1
2016-Aug-24 09:22N 56°34' E 007°38'7114.6
2016-Aug-24 04:30N 57°28' E 009°03'1414.7
2016-Aug-24 03:31N 57°37' E 009°24'3214.0
2016-Aug-24 01:15N 57°47' E 010°20'1114.5
2016-Aug-24 00:31N 57°48' E 010°40'8 1.1
2016-Aug-23 17:24N 57°41' E 010°46'1315.7
2016-Aug-23 16:33N 57°46' E 011°09'1515.4
2016-Aug-23 15:33N 57°54' E 011°33'9 9.5
2016-Aug-23 14:33N 58°01' E 011°46'5 1.2
2016-Aug-23 10:33N 58°05' E 011°49'0 0.0
2016-Aug-23 07:15N 58°05' E 011°49'0 0.0
2016-Aug-23 06:33N 58°05' E 011°49'0 0.0
2016-Aug-23 05:27N 58°05' E 011°49'0 0.0
2016-Aug-23 04:27N 58°05' E 011°49'0 0.0
2016-Aug-23 01:33N 58°05' E 011°49'0 0.0
2016-Aug-23 00:30N 58°05' E 011°49'0 0.0
2016-Aug-22 23:30N 58°05' E 011°49'0 0.0
2016-Aug-22 21:27N 58°05' E 011°49'0 0.0
2016-Aug-22 20:33N 58°05' E 011°49'0 0.0
2016-Aug-22 18:27N 58°05' E 011°49'0 0.0
2016-Aug-22 17:21N 58°05' E 011°49'0 0.6
2016-Aug-22 16:33N 58°05' E 011°48'9 8.9
2016-Aug-22 15:33N 57°57' E 011°42'1111.2
2016-Aug-22 14:33N 57°50' E 011°25'1615.6
2016-Aug-22 13:34N 57°35' E 011°24'1616.4
2016-Aug-22 12:33N 57°19' E 011°33'1616.3
2016-Aug-22 11:33N 57°04' E 011°44'1615.5
2016-Aug-22 10:32N 56°49' E 011°53'1515.2
2016-Aug-22 09:33N 56°34' E 011°59'1814.8
2016-Aug-22 08:21N 56°17' E 012°08'1214.8
2016-Aug-22 07:33N 56°10' E 012°25'1515.2
2016-Aug-22 06:33N 55°58' E 012°41'1514.7
2016-Aug-22 05:33N 55°43' E 012°41'1211.5
2016-Aug-22 04:33N 55°32' E 012°43'1313.0
2016-Aug-22 03:34N 55°19' E 012°40'1313.4
2016-Aug-22 02:33N 55°16' E 013°03'1313.3
2016-Aug-22 01:33N 55°15' E 013°26'1413.9
2016-Aug-22 00:33N 55°14' E 013°51'1313.5
2016-Aug-21 23:33N 55°13' E 014°14'1313.4
2016-Aug-21 22:33N 55°23' E 014°31'1413.8
2016-Aug-21 21:33N 55°31' E 014°50'1413.6
2016-Aug-21 20:33N 55°38' E 015°11'1313.3
2016-Aug-21 19:33N 55°44' E 015°32'1413.9
2016-Aug-21 18:33N 55°51' E 015°53'29813.5
2016-Aug-20 20:32N 59°26' E 022°19'2913.4
2016-Aug-20 18:21N 59°37' E 023°13'1113.7
2016-Aug-20 17:33N 59°40' E 023°34'1414.0
2016-Aug-20 16:33N 59°44' E 024°00'1713.9
2016-Aug-20 15:18N 59°49' E 024°34'1013.8
2016-Aug-20 14:33N 59°51' E 024°54'1613.8
2016-Aug-20 13:22N 59°57' E 025°24'1212.9
2016-Aug-20 12:27N 60°08' E 025°35'4 0.2
2016-Aug-19 16:11N 60°12' E 025°36'914.1
2016-Aug-19 15:34N 60°03' E 025°34'3 2.9
2016-Aug-19 14:32N 60°01' E 025°29'0 0.0
2016-Aug-19 13:32N 60°01' E 025°29'0 0.0
2016-Aug-19 12:32N 60°01' E 025°29'0 0.0
2016-Aug-19 11:29N 60°01' E 025°29'0 0.0
2016-Aug-19 10:32N 60°01' E 025°29'0 0.0
2016-Aug-19 09:23N 60°01' E 025°29'0 0.0
2016-Aug-19 08:29N 60°01' E 025°29'0 0.1
2016-Aug-19 07:32N 60°01' E 025°29'0 0.0
2016-Aug-19 06:29N 60°01' E 025°29'23 7.7
2016-Aug-19 03:31N 59°47' E 024°54'1010.0
2016-Aug-19 02:33N 59°45' E 024°35'1110.8
2016-Aug-19 01:33N 59°41' E 024°15'1211.3
2016-Aug-19 00:30N 59°38' E 023°52'1111.1
2016-Aug-18 23:32N 59°35' E 023°32'35510.7
2016-Aug-17 14:19N 55°37' E 015°21'911.2
2016-Aug-17 13:30N 55°33' E 015°07'1111.3
2016-Aug-17 12:33N 55°27' E 014°51'1111.1
2016-Aug-17 11:34N 55°21' E 014°35'1111.3
2016-Aug-17 10:34N 55°12' E 014°23'1111.3
2016-Aug-17 09:33N 55°03' E 014°11'1110.9
2016-Aug-17 08:33N 54°58' E 013°54'1111.0
2016-Aug-17 07:34N 54°55' E 013°36'1111.0
2016-Aug-17 06:34N 54°51' E 013°17'1111.1
2016-Aug-17 05:33N 54°48' E 012°59'1111.0
2016-Aug-17 04:34N 54°44' E 012°41'1111.2
2016-Aug-17 03:34N 54°38' E 012°25'1010.2
2016-Aug-17 02:33N 54°29' E 012°15'10 9.6
2016-Aug-17 01:33N 54°24' E 012°01'1110.9
2016-Aug-17 00:33N 54°25' E 011°43'1111.3
2016-Aug-16 23:33N 54°30' E 011°25'1111.1
2016-Aug-16 22:33N 54°35' E 011°08'1110.9
2016-Aug-16 21:33N 54°34' E 010°49'1110.9
2016-Aug-16 20:34N 54°33' E 010°31'1110.7
2016-Aug-16 19:34N 54°27' E 010°15'6 6.2
2016-Aug-16 18:33N 54°22' E 010°09'2 1.8
2016-Aug-16 17:33N 54°22' E 010°06'8 7.6
2016-Aug-16 16:33N 54°21' E 009°53'8 7.1
2016-Aug-16 15:29N 54°18' E 009°41'7 7.6
2016-Aug-16 14:31N 54°12' E 009°33'10 7.8
2016-Aug-16 13:14N 54°06' E 009°20'6 8.6
2016-Aug-16 12:34N 54°00' E 009°18'4 4.4
2016-Aug-16 11:33N 53°57' E 009°13'4 3.6
2016-Aug-16 10:33N 53°54' E 009°09'1 1.5
2016-Aug-16 09:33N 53°53' E 009°07'3 2.6
2016-Aug-16 08:33N 53°52' E 009°03'1010.4
2016-Aug-16 07:33N 53°51' E 008°46'25 8.3
2016-Aug-16 04:31N 54°02' E 008°07'0 0.1
2016-Aug-16 03:31N 54°02' E 008°07'  
Track history (hours):
 
Tides and Currents Weather Stations Pressure Air Temp Water Temp Dewpoint Dewpoint Depression Visibility Wind Speed Wind Dir Waves Ship Positions

Coral Leaf

Last reported at 2016-Aug-26 02:34 UTC. Time now 2016-Aug-26 03:16 UTC.
Position N 49°52' W 003°11'.

Length 108 m; draft 5 m.

MMSI: 244036000.

Date/timePositionNaut miles runAvg speedWind from/ knotsBaromVisibWave heightAir tempDewpointWater temp
2016-Aug-26 02:34N 49°52' W 003°11'1414.4
2016-Aug-26 01:34N 49°58' W 002°51'1914.0
2016-Aug-26 00:13N 50°04' W 002°23'914.1
2016-Aug-25 23:34N 50°06' W 002°09'1514.6
2016-Aug-25 22:34N 50°11' W 001°47'2016.0
2016-Aug-25 21:20N 50°17' W 001°18'1517.9
2016-Aug-25 20:30N 50°21' W 000°55'1718.0
2016-Aug-25 19:32N 50°26' W 000°30'1717.2
2016-Aug-25 18:33N 50°31' W 000°04'1616.4
2016-Aug-25 17:33N 50°36' E 000°21'1615.5
2016-Aug-25 16:33N 50°42' E 000°43'1514.8
2016-Aug-25 15:33N 50°51' E 001°02'1515.0
2016-Aug-25 14:34N 51°01' E 001°19'1717.2
2016-Aug-25 13:33N 51°11' E 001°41'1717.3
2016-Aug-25 12:34N 51°26' E 001°56'1616.2
2016-Aug-25 11:34N 51°38' E 002°13'1515.3
2016-Aug-25 10:33N 51°49' E 002°30'1515.2
2016-Aug-25 09:34N 52°01' E 002°45'1514.9
2016-Aug-25 08:33N 52°13' E 003°00'1010.5
2016-Aug-25 07:33N 52°23' E 003°05'2 1.5
2016-Aug-25 06:33N 52°21' E 003°05'2210.8
2016-Aug-25 04:33N 52°37' E 003°30'1514.7
2016-Aug-25 03:32N 52°48' E 003°46'1414.7
2016-Aug-25 02:33N 52°59' E 004°02'1514.9
2016-Aug-25 01:33N 53°09' E 004°20'1514.8
2016-Aug-25 00:33N 53°22' E 004°31'1515.0
2016-Aug-24 23:33N 53°36' E 004°40'1514.6
2016-Aug-24 22:33N 53°50' E 004°49'1414.3
2016-Aug-24 21:33N 54°03' E 004°58'1414.6
2016-Aug-24 20:33N 54°17' E 005°07'2215.0
2016-Aug-24 19:04N 54°37' E 005°21'3814.9
2016-Aug-24 16:31N 55°09' E 005°58'1914.7
2016-Aug-24 15:16N 55°24' E 006°16'1614.7
2016-Aug-24 14:10N 55°38' E 006°31'914.8
2016-Aug-24 13:34N 55°45' E 006°41'1714.7
2016-Aug-24 12:26N 55°59' E 006°57'1314.6
2016-Aug-24 11:31N 56°10' E 007°10'2813.1
2016-Aug-24 09:22N 56°34' E 007°38'7114.6
2016-Aug-24 04:30N 57°28' E 009°03'1414.7
2016-Aug-24 03:31N 57°37' E 009°24'3214.0
2016-Aug-24 01:15N 57°47' E 010°20'1114.5
2016-Aug-24 00:31N 57°48' E 010°40'8 1.1
2016-Aug-23 17:24N 57°41' E 010°46'1315.7
2016-Aug-23 16:33N 57°46' E 011°09'1515.4
2016-Aug-23 15:33N 57°54' E 011°33'9 9.5
2016-Aug-23 14:33N 58°01' E 011°46'5 1.2
2016-Aug-23 10:33N 58°05' E 011°49'0 0.0
2016-Aug-23 07:15N 58°05' E 011°49'0 0.0
2016-Aug-23 06:33N 58°05' E 011°49'0 0.0
2016-Aug-23 05:27N 58°05' E 011°49'0 0.0
2016-Aug-23 04:27N 58°05' E 011°49'0 0.0
2016-Aug-23 01:33N 58°05' E 011°49'0 0.0
2016-Aug-23 00:30N 58°05' E 011°49'0 0.0
2016-Aug-22 23:30N 58°05' E 011°49'0 0.0
2016-Aug-22 21:27N 58°05' E 011°49'0 0.0
2016-Aug-22 20:33N 58°05' E 011°49'0 0.0
2016-Aug-22 18:27N 58°05' E 011°49'0 0.0
2016-Aug-22 17:21N 58°05' E 011°49'0 0.6
2016-Aug-22 16:33N 58°05' E 011°48'9 8.9
2016-Aug-22 15:33N 57°57' E 011°42'1111.2
2016-Aug-22 14:33N 57°50' E 011°25'1615.6
2016-Aug-22 13:34N 57°35' E 011°24'1616.4
2016-Aug-22 12:33N 57°19' E 011°33'1616.3
2016-Aug-22 11:33N 57°04' E 011°44'1615.5
2016-Aug-22 10:32N 56°49' E 011°53'1515.2
2016-Aug-22 09:33N 56°34' E 011°59'1814.8
2016-Aug-22 08:21N 56°17' E 012°08'1214.8
2016-Aug-22 07:33N 56°10' E 012°25'1515.2
2016-Aug-22 06:33N 55°58' E 012°41'1514.7
2016-Aug-22 05:33N 55°43' E 012°41'1211.5
2016-Aug-22 04:33N 55°32' E 012°43'1313.0
2016-Aug-22 03:34N 55°19' E 012°40'1313.4
2016-Aug-22 02:33N 55°16' E 013°03'1313.3
2016-Aug-22 01:33N 55°15' E 013°26'1413.9
2016-Aug-22 00:33N 55°14' E 013°51'1313.5
2016-Aug-21 23:33N 55°13' E 014°14'1313.4
2016-Aug-21 22:33N 55°23' E 014°31'1413.8
2016-Aug-21 21:33N 55°31' E 014°50'1413.6
2016-Aug-21 20:33N 55°38' E 015°11'1313.3
2016-Aug-21 19:33N 55°44' E 015°32'1413.9
2016-Aug-21 18:33N 55°51' E 015°53'29813.5
2016-Aug-20 20:32N 59°26' E 022°19'2913.4
2016-Aug-20 18:21N 59°37' E 023°13'1113.7
2016-Aug-20 17:33N 59°40' E 023°34'1414.0
2016-Aug-20 16:33N 59°44' E 024°00'1713.9
2016-Aug-20 15:18N 59°49' E 024°34'1013.8
2016-Aug-20 14:33N 59°51' E 024°54'1613.8
2016-Aug-20 13:22N 59°57' E 025°24'1212.9
2016-Aug-20 12:27N 60°08' E 025°35'4 0.2
2016-Aug-19 16:11N 60°12' E 025°36'914.1
2016-Aug-19 15:34N 60°03' E 025°34'3 2.9
2016-Aug-19 14:32N 60°01' E 025°29'0 0.0
2016-Aug-19 13:32N 60°01' E 025°29'0 0.0
2016-Aug-19 12:32N 60°01' E 025°29'0 0.0
2016-Aug-19 11:29N 60°01' E 025°29'0 0.0
2016-Aug-19 10:32N 60°01' E 025°29'0 0.0
2016-Aug-19 09:23N 60°01' E 025°29'0 0.0
2016-Aug-19 08:29N 60°01' E 025°29'0 0.1
2016-Aug-19 07:32N 60°01' E 025°29'0 0.0
2016-Aug-19 06:29N 60°01' E 025°29'23 7.7
2016-Aug-19 03:31N 59°47' E 024°54'1010.0
2016-Aug-19 02:33N 59°45' E 024°35'1110.8
2016-Aug-19 01:33N 59°41' E 024°15'1211.3
2016-Aug-19 00:30N 59°38' E 023°52'1111.1
2016-Aug-18 23:32N 59°35' E 023°32'35510.7
2016-Aug-17 14:19N 55°37' E 015°21'911.2
2016-Aug-17 13:30N 55°33' E 015°07'1111.3
2016-Aug-17 12:33N 55°27' E 014°51'1111.1
2016-Aug-17 11:34N 55°21' E 014°35'1111.3
2016-Aug-17 10:34N 55°12' E 014°23'1111.3
2016-Aug-17 09:33N 55°03' E 014°11'1110.9
2016-Aug-17 08:33N 54°58' E 013°54'1111.0
2016-Aug-17 07:34N 54°55' E 013°36'1111.0
2016-Aug-17 06:34N 54°51' E 013°17'1111.1
2016-Aug-17 05:33N 54°48' E 012°59'1111.0
2016-Aug-17 04:34N 54°44' E 012°41'1111.2
2016-Aug-17 03:34N 54°38' E 012°25'1010.2
2016-Aug-17 02:33N 54°29' E 012°15'10 9.6
2016-Aug-17 01:33N 54°24' E 012°01'1110.9
2016-Aug-17 00:33N 54°25' E 011°43'1111.3
2016-Aug-16 23:33N 54°30' E 011°25'1111.1
2016-Aug-16 22:33N 54°35' E 011°08'1110.9
2016-Aug-16 21:33N 54°34' E 010°49'1110.9
2016-Aug-16 20:34N 54°33' E 010°31'1110.7
2016-Aug-16 19:34N 54°27' E 010°15'6 6.2
2016-Aug-16 18:33N 54°22' E 010°09'2 1.8
2016-Aug-16 17:33N 54°22' E 010°06'8 7.6
2016-Aug-16 16:33N 54°21' E 009°53'8 7.1
2016-Aug-16 15:29N 54°18' E 009°41'7 7.6
2016-Aug-16 14:31N 54°12' E 009°33'10 7.8
2016-Aug-16 13:14N 54°06' E 009°20'6 8.6
2016-Aug-16 12:34N 54°00' E 009°18'4 4.4
2016-Aug-16 11:33N 53°57' E 009°13'4 3.6
2016-Aug-16 10:33N 53°54' E 009°09'1 1.5
2016-Aug-16 09:33N 53°53' E 009°07'3 2.6
2016-Aug-16 08:33N 53°52' E 009°03'1010.4
2016-Aug-16 07:33N 53°51' E 008°46'25 8.3
2016-Aug-16 04:31N 54°02' E 008°07'0 0.1
2016-Aug-16 03:31N 54°02' E 008°07'  

Dump ship's entire track history